Blachly, Oregon
Current Conditions -  °F | °C
As of 9:54 AM on Saturday 25 Oct 2014 (Local Time) from KEUG Reporting Station
Broken Clouds Broken Clouds  
Wind Chill: 59°   Ceiling: 7500
Heat Index: 59°   Visibility: 10mi
Dew Point: 52°   Wind: 8mph
Humidity: 78%   Direction: 150°SSE
Pressure: 29.41"   Gusts: NA
Location:  44.19°N, 123.53°W
Report Text: KEUG 251654Z 15007KT 10SM FEW060 BKN075 BKN090 15/11 A2941 RMK AO2 SLP958 VCSH T01500111
Loading
Personal Weather Stations






























Interactive Weather Map
Tropical Storm Tracking
New forecast layout! Learn more

10-Day Weather Forecast

Advertisements
Track Severe Weather on mobile